createdAt,value
2023-03-25T00:01:44.742Z,6.57
2023-03-25T00:04:13.448Z,6.57
2023-03-25T00:06:41.924Z,6.55
2023-03-25T00:09:13.356Z,6.55
2023-03-25T00:11:43.801Z,6.56
2023-03-25T00:14:12.575Z,6.58
2023-03-25T00:16:48.764Z,6.59
2023-03-25T00:19:17.815Z,6.58
2023-03-25T00:21:52.174Z,6.57
2023-03-25T00:24:27.756Z,6.56
2023-03-25T00:26:56.409Z,6.54
2023-03-25T00:29:26.859Z,6.53
2023-03-25T00:31:56.201Z,6.51
2023-03-25T00:34:25.183Z,6.48
2023-03-25T00:36:54.291Z,6.44
2023-03-25T00:39:23.180Z,6.39
2023-03-25T00:41:54.522Z,6.37
2023-03-25T00:44:24.461Z,6.36
2023-03-25T00:46:53.841Z,6.34
2023-03-25T00:49:25.295Z,6.31
2023-03-25T00:51:56.884Z,6.29
2023-03-25T00:54:30.018Z,6.27
2023-03-25T00:56:59.088Z,6.24
2023-03-25T00:59:27.702Z,6.22
2023-03-25T01:01:58.021Z,6.19
2023-03-25T01:04:27.675Z,6.18
2023-03-25T01:06:56.092Z,6.16
2023-03-25T01:09:27.414Z,6.15
2023-03-25T01:11:56.165Z,6.13
2023-03-25T01:14:27.402Z,6.12
2023-03-25T01:16:55.926Z,6.12
2023-03-25T01:19:25.221Z,6.10
2023-03-25T01:22:03.519Z,6.07
2023-03-25T01:24:32.390Z,6.04
2023-03-25T01:27:00.495Z,6.01
2023-03-25T01:29:29.751Z,5.98
2023-03-25T01:31:58.809Z,5.95
2023-03-25T01:34:27.453Z,5.92
2023-03-25T01:36:56.059Z,5.89
2023-03-25T01:39:24.368Z,5.86
2023-03-25T01:41:55.211Z,5.82
2023-03-25T01:44:24.290Z,5.80
2023-03-25T01:46:53.882Z,5.77
2023-03-25T01:49:30.520Z,5.73
2023-03-25T01:52:02.931Z,5.70
2023-03-25T01:54:31.019Z,5.66
2023-03-25T01:56:59.927Z,5.59
2023-03-25T01:59:28.443Z,5.55
2023-03-25T02:01:58.461Z,5.55
2023-03-25T02:04:59.930Z,5.52
2023-03-25T02:07:31.167Z,5.47
2023-03-25T02:10:06.077Z,5.45
2023-03-25T02:12:34.682Z,5.41
2023-03-25T02:15:06.011Z,5.37
2023-03-25T02:17:56.410Z,5.35
2023-03-25T02:21:03.787Z,5.31
2023-03-25T02:23:58.440Z,5.29
2023-03-25T02:26:56.221Z,5.26
2023-03-25T02:29:39.353Z,5.21
2023-03-25T02:32:45.953Z,5.18
2023-03-25T02:35:27.325Z,5.16
2023-03-25T02:37:59.435Z,5.14
2023-03-25T02:40:32.330Z,5.11
2023-03-25T02:43:04.222Z,5.09
2023-03-25T02:45:36.369Z,5.07
2023-03-25T02:48:15.633Z,5.06
2023-03-25T02:50:47.098Z,5.04
2023-03-25T02:53:19.767Z,5.01
2023-03-25T02:55:49.742Z,4.98
2023-03-25T02:58:19.568Z,4.95
2023-03-25T03:00:50.566Z,4.93
2023-03-25T03:03:21.119Z,4.92
2023-03-25T03:05:51.206Z,4.90
2023-03-25T03:08:49.181Z,4.89
2023-03-25T03:11:40.816Z,4.89
2023-03-25T03:14:25.188Z,4.88
2023-03-25T03:17:03.846Z,4.88
2023-03-25T03:19:46.634Z,4.88
2023-03-25T03:22:39.941Z,4.89
2023-03-25T03:25:35.578Z,4.89
2023-03-25T03:28:17.495Z,4.89
2023-03-25T03:31:15.745Z,4.89
2023-03-25T03:34:06.953Z,4.91
2023-03-25T03:36:39.093Z,4.90
2023-03-25T03:39:21.028Z,4.90
2023-03-25T03:41:52.836Z,4.89
2023-03-25T03:44:24.234Z,4.89
2023-03-25T03:46:59.170Z,4.88
2023-03-25T03:50:09.537Z,4.88
2023-03-25T03:52:43.048Z,4.88
2023-03-25T03:55:21.345Z,4.87
2023-03-25T03:58:02.877Z,4.87
2023-03-25T04:00:50.015Z,4.88
2023-03-25T04:03:24.914Z,4.89
2023-03-25T04:06:08.308Z,4.90
2023-03-25T04:08:52.035Z,4.93
2023-03-25T04:11:23.294Z,4.96
2023-03-25T04:13:52.660Z,5.00
2023-03-25T04:16:21.943Z,5.04
2023-03-25T04:18:53.832Z,5.08
2023-03-25T04:21:30.295Z,5.12
2023-03-25T04:24:01.766Z,5.16
2023-03-25T04:26:34.259Z,5.20
2023-03-25T04:29:06.229Z,5.24
2023-03-25T04:31:35.512Z,5.30
2023-03-25T04:34:04.783Z,5.35
2023-03-25T04:36:38.172Z,5.39
2023-03-25T04:39:08.017Z,5.43
2023-03-25T04:41:39.713Z,5.48
2023-03-25T04:44:09.168Z,5.53
2023-03-25T04:46:37.802Z,5.59
2023-03-25T04:49:14.465Z,5.65
2023-03-25T04:51:45.073Z,5.70
2023-03-25T04:54:18.115Z,5.77
2023-03-25T04:56:48.042Z,5.84
2023-03-25T04:59:18.499Z,5.89
2023-03-25T05:01:47.780Z,5.94
2023-03-25T05:04:17.880Z,5.99
2023-03-25T05:06:51.539Z,6.03
2023-03-25T05:09:22.426Z,6.08
2023-03-25T05:11:52.124Z,6.12
2023-03-25T05:14:24.240Z,6.18
2023-03-25T05:16:53.196Z,6.25
2023-03-25T05:19:22.001Z,6.32
2023-03-25T05:21:53.049Z,6.40
2023-03-25T05:24:21.813Z,6.51
2023-03-25T05:26:50.802Z,6.60
2023-03-25T05:29:19.471Z,6.64
2023-03-25T05:31:48.890Z,6.73
2023-03-25T05:34:20.818Z,6.82
2023-03-25T05:36:50.285Z,6.93
2023-03-25T05:39:20.607Z,7.04
2023-03-25T05:41:50.675Z,7.16
2023-03-25T05:44:20.537Z,7.30
2023-03-25T05:46:49.364Z,7.44
2023-03-25T05:49:17.808Z,7.60
2023-03-25T05:51:54.383Z,7.74
2023-03-25T05:54:24.814Z,7.90
2023-03-25T05:56:53.868Z,7.99
2023-03-25T05:59:22.713Z,8.03
2023-03-25T06:01:51.867Z,8.08
2023-03-25T06:04:24.020Z,8.13
2023-03-25T06:06:53.022Z,8.23
2023-03-25T06:09:21.850Z,8.33
2023-03-25T06:11:53.732Z,8.44
2023-03-25T06:14:25.850Z,8.53
2023-03-25T06:16:57.143Z,8.66
2023-03-25T06:19:26.759Z,8.81
2023-03-25T06:22:01.409Z,8.95
2023-03-25T06:24:37.836Z,9.07
2023-03-25T06:27:08.109Z,9.23
2023-03-25T06:29:42.064Z,9.36
2023-03-25T06:32:12.984Z,9.50
2023-03-25T06:34:43.051Z,9.63
2023-03-25T06:37:13.026Z,9.75
2023-03-25T06:39:46.530Z,9.88
2023-03-25T06:42:19.260Z,10.04
2023-03-25T06:45:03.138Z,10.19
2023-03-25T06:47:46.345Z,10.33
2023-03-25T06:50:15.569Z,10.45
2023-03-25T06:52:44.226Z,10.58
2023-03-25T06:55:16.341Z,10.71
2023-03-25T06:57:45.433Z,10.80
2023-03-25T07:00:23.650Z,10.89
2023-03-25T07:02:52.574Z,10.96
2023-03-25T07:05:21.662Z,11.07
2023-03-25T07:07:50.743Z,11.19
2023-03-25T07:10:20.013Z,11.33
2023-03-25T07:12:48.704Z,11.44
2023-03-25T07:15:17.511Z,11.53
2023-03-25T07:17:49.582Z,11.58
2023-03-25T07:20:18.491Z,11.63
2023-03-25T07:22:50.479Z,11.67
2023-03-25T07:25:19.345Z,11.75
2023-03-25T07:27:52.877Z,11.81
2023-03-25T07:30:21.611Z,11.89
2023-03-25T07:32:50.258Z,12.02
2023-03-25T07:35:21.794Z,12.14
2023-03-25T07:37:50.566Z,12.23
2023-03-25T07:40:19.268Z,12.30
2023-03-25T07:42:50.262Z,12.36
2023-03-25T07:45:23.252Z,12.45
2023-03-25T07:47:53.706Z,12.59
2023-03-25T07:50:24.869Z,12.75
2023-03-25T07:52:57.875Z,12.92
2023-03-25T07:55:26.502Z,13.00
2023-03-25T07:57:55.195Z,13.08
2023-03-25T08:00:29.620Z,13.17
2023-03-25T08:02:58.801Z,13.28
2023-03-25T08:05:28.776Z,13.40
2023-03-25T08:08:01.115Z,13.52
2023-03-25T08:10:30.148Z,13.65
2023-03-25T08:13:04.594Z,13.79
2023-03-25T08:15:34.937Z,13.92
2023-03-25T08:18:05.568Z,14.07
2023-03-25T08:20:39.655Z,14.21
2023-03-25T08:23:10.836Z,14.29
2023-03-25T08:25:40.018Z,14.38
2023-03-25T08:28:08.857Z,14.43
2023-03-25T08:30:38.625Z,14.43
2023-03-25T08:33:08.491Z,14.47
2023-03-25T08:35:57.384Z,14.56
2023-03-25T08:38:34.877Z,14.68
2023-03-25T08:41:05.444Z,14.84
2023-03-25T08:43:34.361Z,14.93
2023-03-25T08:46:08.679Z,14.98
2023-03-25T08:48:38.172Z,15.03
2023-03-25T08:51:07.800Z,15.12
2023-03-25T08:53:36.537Z,15.19
2023-03-25T08:56:05.690Z,15.25
2023-03-25T08:58:37.158Z,15.36
2023-03-25T09:01:06.881Z,15.44
2023-03-25T09:03:37.880Z,15.50
2023-03-25T09:06:07.981Z,15.54
2023-03-25T09:08:37.464Z,15.58
2023-03-25T09:11:07.050Z,15.58
2023-03-25T09:13:36.084Z,15.49
2023-03-25T09:16:05.475Z,15.43
2023-03-25T09:18:37.142Z,15.49
2023-03-25T09:21:08.222Z,15.63
2023-03-25T09:23:36.727Z,15.74
2023-03-25T09:26:06.797Z,15.80
2023-03-25T09:28:35.897Z,15.79
2023-03-25T09:31:06.517Z,15.71
2023-03-25T09:33:36.197Z,15.64
2023-03-25T09:36:05.150Z,15.67
2023-03-25T09:38:39.795Z,15.74
2023-03-25T09:41:39.472Z,15.78
2023-03-25T09:44:20.316Z,15.88
2023-03-25T09:46:48.940Z,15.97
2023-03-25T09:49:22.711Z,16.04
2023-03-25T09:51:52.606Z,16.12
2023-03-25T09:54:32.111Z,16.17
2023-03-25T09:57:05.221Z,16.25
2023-03-25T10:00:07.057Z,16.34
2023-03-25T10:03:00.142Z,16.41
2023-03-25T10:06:02.609Z,16.54
2023-03-25T10:08:58.683Z,16.60
2023-03-25T10:11:34.604Z,16.58
2023-03-25T10:14:18.178Z,16.56
2023-03-25T10:17:15.095Z,16.58
2023-03-25T10:19:54.612Z,16.54
2023-03-25T10:22:52.951Z,16.59
2023-03-25T10:25:24.017Z,16.68
2023-03-25T10:27:53.993Z,16.70
2023-03-25T10:30:35.368Z,16.71
2023-03-25T10:33:06.611Z,16.71
2023-03-25T10:35:38.322Z,16.74
2023-03-25T10:38:18.922Z,16.82
2023-03-25T10:40:50.636Z,16.93
2023-03-25T10:43:34.756Z,17.00
2023-03-25T10:46:17.993Z,17.05
2023-03-25T10:48:52.057Z,17.02
2023-03-25T10:51:32.430Z,16.99
2023-03-25T10:54:05.814Z,16.99
2023-03-25T10:56:38.061Z,17.09
2023-03-25T10:59:14.373Z,17.15
2023-03-25T11:01:43.349Z,17.14
2023-03-25T11:04:19.717Z,17.19
2023-03-25T11:06:55.739Z,17.30
2023-03-25T11:09:30.804Z,17.45
2023-03-25T11:12:00.399Z,17.63
2023-03-25T11:14:29.729Z,17.69
2023-03-25T11:17:05.916Z,17.67
2023-03-25T11:19:48.809Z,17.68
2023-03-25T11:22:19.493Z,17.73
2023-03-25T11:24:50.814Z,17.68
2023-03-25T11:27:24.763Z,17.51
2023-03-25T11:29:55.882Z,17.36
2023-03-25T11:32:32.804Z,17.23
2023-03-25T11:35:03.994Z,17.11
2023-03-25T11:37:33.161Z,17.03
2023-03-25T11:40:05.468Z,16.95
2023-03-25T11:42:40.428Z,16.84
2023-03-25T11:45:27.341Z,16.63
2023-03-25T11:47:58.963Z,16.49
2023-03-25T11:50:29.165Z,16.41
2023-03-25T11:52:59.855Z,16.35
2023-03-25T11:55:44.069Z,16.28
2023-03-25T11:58:17.523Z,16.24
2023-03-25T12:00:50.930Z,16.38
2023-03-25T12:03:23.228Z,16.61
2023-03-25T12:05:59.307Z,16.85
2023-03-25T12:08:30.517Z,17.02
2023-03-25T12:11:09.510Z,17.15
2023-03-25T12:14:01.556Z,17.25
2023-03-25T12:16:34.785Z,17.26
2023-03-25T12:19:20.771Z,17.29
2023-03-25T12:22:02.286Z,17.40
2023-03-25T12:25:07.819Z,17.56
2023-03-25T12:27:40.532Z,17.68
2023-03-25T12:30:17.994Z,17.75
2023-03-25T12:33:14.363Z,17.85
2023-03-25T12:36:20.847Z,17.84
2023-03-25T12:39:09.808Z,17.78
2023-03-25T12:41:41.159Z,17.66
2023-03-25T12:44:39.139Z,17.54
2023-03-25T12:47:16.793Z,17.36
2023-03-25T12:49:56.083Z,17.19
2023-03-25T12:52:34.318Z,17.05
2023-03-25T12:55:42.630Z,16.93
2023-03-25T12:58:39.216Z,16.75
2023-03-25T13:01:23.630Z,16.75
2023-03-25T13:03:55.330Z,16.91
2023-03-25T13:06:39.026Z,17.12
2023-03-25T13:09:26.828Z,17.29
2023-03-25T13:12:04.938Z,17.29
2023-03-25T13:14:37.092Z,17.12
2023-03-25T13:17:12.919Z,16.88
2023-03-25T13:19:44.550Z,16.64
2023-03-25T13:22:27.015Z,16.40
2023-03-25T13:24:59.408Z,16.21
2023-03-25T13:27:36.347Z,16.18
2023-03-25T13:30:09.478Z,16.33
2023-03-25T13:32:50.640Z,16.50
2023-03-25T13:35:23.789Z,16.66
2023-03-25T13:37:54.041Z,16.61
2023-03-25T13:40:34.709Z,16.39
2023-03-25T13:43:13.735Z,16.16
2023-03-25T13:45:55.518Z,16.00
2023-03-25T13:48:32.146Z,15.93
2023-03-25T13:51:03.640Z,16.04
2023-03-25T13:53:47.793Z,16.25
2023-03-25T13:56:47.382Z,16.38
2023-03-25T13:59:40.266Z,16.47
2023-03-25T14:02:12.606Z,16.76
2023-03-25T14:04:59.716Z,17.12
2023-03-25T14:07:28.416Z,17.42
2023-03-25T14:10:09.681Z,17.59
2023-03-25T14:12:41.493Z,17.74
2023-03-25T14:15:14.072Z,17.74
2023-03-25T14:17:45.192Z,17.59
2023-03-25T14:20:19.188Z,17.37
2023-03-25T14:22:48.680Z,17.05
2023-03-25T14:25:22.377Z,16.68
2023-03-25T14:27:51.566Z,16.30
2023-03-25T14:30:22.811Z,15.93
2023-03-25T14:32:52.242Z,15.58
2023-03-25T14:35:34.532Z,15.35
2023-03-25T14:38:06.221Z,15.17
2023-03-25T14:40:47.444Z,15.06
2023-03-25T14:43:37.144Z,14.99
2023-03-25T14:46:13.507Z,15.09
2023-03-25T14:48:49.329Z,15.10
2023-03-25T14:51:30.401Z,14.98
2023-03-25T14:54:04.559Z,14.80
2023-03-25T14:56:37.471Z,14.64
2023-03-25T14:59:12.661Z,14.47
2023-03-25T15:01:43.135Z,14.33
2023-03-25T15:04:19.521Z,14.30
2023-03-25T15:06:52.102Z,14.39
2023-03-25T15:09:21.332Z,14.35
2023-03-25T15:12:02.934Z,14.22
2023-03-25T15:14:38.980Z,14.04
2023-03-25T15:17:12.667Z,13.92
2023-03-25T15:20:13.093Z,13.86
2023-03-25T15:22:41.917Z,13.69
2023-03-25T15:25:18.954Z,13.52
2023-03-25T15:28:39.827Z,13.36
2023-03-25T15:31:20.416Z,13.19
2023-03-25T15:34:10.645Z,13.06
2023-03-25T15:37:00.092Z,12.97
2023-03-25T15:39:58.688Z,12.88
2023-03-25T15:42:53.202Z,12.78
2023-03-25T15:45:26.449Z,12.64
2023-03-25T15:48:13.933Z,12.53
2023-03-25T15:51:03.846Z,12.39
2023-03-25T15:53:46.333Z,12.26
2023-03-25T15:56:17.524Z,12.14
2023-03-25T15:58:57.220Z,12.04
2023-03-25T16:01:34.230Z,11.96
2023-03-25T16:04:33.256Z,11.89
2023-03-25T16:07:01.916Z,11.80
2023-03-25T16:09:32.599Z,11.71
2023-03-25T16:12:01.627Z,11.63
2023-03-25T16:14:31.709Z,11.56
2023-03-25T16:17:05.953Z,11.50
2023-03-25T16:19:35.622Z,11.44
2023-03-25T16:22:27.063Z,11.39
2023-03-25T16:25:02.994Z,11.32
2023-03-25T16:27:36.111Z,11.25
2023-03-25T16:30:38.573Z,11.16
2023-03-25T16:33:07.401Z,11.04
2023-03-25T16:35:47.424Z,10.98
2023-03-25T16:38:18.460Z,10.95
2023-03-25T16:40:50.104Z,10.93
2023-03-25T16:43:23.685Z,10.91
2023-03-25T16:45:52.997Z,10.86
2023-03-25T16:48:28.994Z,10.83
2023-03-25T16:51:05.358Z,10.80
2023-03-25T16:53:35.384Z,10.77
2023-03-25T16:56:15.312Z,10.73
2023-03-25T16:58:59.225Z,10.69
2023-03-25T17:01:29.588Z,10.65
2023-03-25T17:04:13.895Z,10.61
2023-03-25T17:06:52.716Z,10.56
2023-03-25T17:09:25.172Z,10.51
2023-03-25T17:11:57.042Z,10.45
2023-03-25T17:14:33.920Z,10.41
2023-03-25T17:17:21.772Z,10.38
2023-03-25T17:19:52.036Z,10.34
2023-03-25T17:22:26.646Z,10.31
2023-03-25T17:24:57.171Z,10.27
2023-03-25T17:27:36.345Z,10.22
2023-03-25T17:30:21.003Z,10.19
2023-03-25T17:32:49.769Z,10.16
2023-03-25T17:35:25.652Z,10.12
2023-03-25T17:37:55.075Z,10.07
2023-03-25T17:40:29.984Z,10.01
2023-03-25T17:43:00.231Z,9.94
2023-03-25T17:45:29.037Z,9.87
2023-03-25T17:47:57.689Z,9.79
2023-03-25T17:50:28.146Z,9.71
2023-03-25T17:52:57.692Z,9.62
2023-03-25T17:55:27.342Z,9.52
2023-03-25T17:57:56.397Z,9.42
2023-03-25T18:00:24.466Z,9.31
2023-03-25T18:02:53.128Z,9.20
2023-03-25T18:05:23.880Z,9.10
2023-03-25T18:07:56.693Z,8.98
2023-03-25T18:10:25.171Z,8.86
2023-03-25T18:12:59.641Z,8.75
2023-03-25T18:15:28.885Z,8.64
2023-03-25T18:17:58.086Z,8.54
2023-03-25T18:20:36.343Z,8.44
2023-03-25T18:23:05.014Z,8.35
2023-03-25T18:25:34.390Z,8.28
2023-03-25T18:28:04.293Z,8.20
2023-03-25T18:30:39.247Z,8.12
2023-03-25T18:33:08.823Z,8.04
2023-03-25T18:35:37.728Z,7.95
2023-03-25T18:38:06.457Z,7.87
2023-03-25T18:40:37.823Z,7.82
2023-03-25T18:43:06.589Z,7.76
2023-03-25T18:45:36.919Z,7.70
2023-03-25T18:48:06.672Z,7.65
2023-03-25T18:50:42.136Z,7.59
2023-03-25T18:53:17.320Z,7.55
2023-03-25T18:55:46.276Z,7.48
2023-03-25T18:58:22.801Z,7.43
2023-03-25T19:00:52.594Z,7.38
2023-03-25T19:03:38.790Z,7.33
2023-03-25T19:06:13.752Z,7.28
2023-03-25T19:08:44.271Z,7.23
2023-03-25T19:11:20.986Z,7.19
2023-03-25T19:13:58.196Z,7.15
2023-03-25T19:16:28.256Z,7.12
2023-03-25T19:18:57.199Z,7.08
2023-03-25T19:21:27.137Z,7.05
2023-03-25T19:23:57.070Z,7.02
2023-03-25T19:26:25.590Z,7.00
2023-03-25T19:28:55.588Z,6.99
2023-03-25T19:31:25.566Z,6.97
2023-03-25T19:33:59.239Z,6.94
2023-03-25T19:36:28.046Z,6.92
2023-03-25T19:39:00.260Z,6.90
2023-03-25T19:41:30.889Z,6.87
2023-03-25T19:44:00.035Z,6.83
2023-03-25T19:46:32.045Z,6.80
2023-03-25T19:49:01.103Z,6.78
2023-03-25T19:51:30.030Z,6.76
2023-03-25T19:54:01.055Z,6.74
2023-03-25T19:56:29.833Z,6.72
2023-03-25T19:58:58.781Z,6.71
2023-03-25T20:01:27.489Z,6.70
2023-03-25T20:03:59.979Z,6.70
2023-03-25T20:06:31.793Z,6.70
2023-03-25T20:09:01.605Z,6.71
2023-03-25T20:11:30.746Z,6.72
2023-03-25T20:14:07.164Z,6.74
2023-03-25T20:16:36.955Z,6.77
2023-03-25T20:19:05.730Z,6.78
2023-03-25T20:21:37.971Z,6.80
2023-03-25T20:24:07.770Z,6.80
2023-03-25T20:26:36.550Z,6.80
2023-03-25T20:29:08.993Z,6.79
2023-03-25T20:31:37.868Z,6.76
2023-03-25T20:34:07.058Z,6.74
2023-03-25T20:36:36.600Z,6.71
2023-03-25T20:39:07.974Z,6.71
2023-03-25T20:41:38.185Z,6.70
2023-03-25T20:44:06.999Z,6.69
2023-03-25T20:46:35.846Z,6.68
2023-03-25T20:49:07.035Z,6.70
2023-03-25T20:51:40.709Z,6.71
2023-03-25T20:54:10.279Z,6.72
2023-03-25T20:56:39.144Z,6.73
2023-03-25T20:59:09.606Z,6.73
2023-03-25T21:01:38.145Z,6.73
2023-03-25T21:04:07.681Z,6.73
2023-03-25T21:06:38.439Z,6.73
2023-03-25T21:09:10.030Z,6.73
2023-03-25T21:11:39.179Z,6.73
2023-03-25T21:14:08.088Z,6.73
2023-03-25T21:16:37.992Z,6.72
2023-03-25T21:19:08.274Z,6.72
2023-03-25T21:21:38.838Z,6.74
2023-03-25T21:24:08.199Z,6.77
2023-03-25T21:26:37.041Z,6.79
2023-03-25T21:29:06.157Z,6.80
2023-03-25T21:31:34.652Z,6.80
2023-03-25T21:34:04.068Z,6.81
2023-03-25T21:36:33.036Z,6.81
2023-03-25T21:39:04.722Z,6.82
2023-03-25T21:41:35.482Z,6.82
2023-03-25T21:44:05.629Z,6.83
2023-03-25T21:46:36.908Z,6.82
2023-03-25T21:49:06.331Z,6.83
2023-03-25T21:51:42.667Z,6.83
2023-03-25T21:54:11.775Z,6.83
2023-03-25T21:56:44.076Z,6.84
2023-03-25T21:59:12.803Z,6.83
2023-03-25T22:01:46.432Z,6.84
2023-03-25T22:04:15.133Z,6.84
2023-03-25T22:06:43.898Z,6.84
2023-03-25T22:09:13.600Z,6.85
2023-03-25T22:11:43.244Z,6.86
2023-03-25T22:14:12.075Z,6.86
2023-03-25T22:16:41.342Z,6.87
2023-03-25T22:19:11.578Z,6.88
2023-03-25T22:21:46.266Z,6.88
2023-03-25T22:24:16.256Z,6.87
2023-03-25T22:26:45.472Z,6.87
2023-03-25T22:29:14.063Z,6.87
2023-03-25T22:31:45.104Z,6.87
2023-03-25T22:34:15.724Z,6.86
2023-03-25T22:36:50.705Z,6.86
2023-03-25T22:39:20.570Z,6.87
2023-03-25T22:41:50.765Z,6.87
2023-03-25T22:44:19.548Z,6.86
2023-03-25T22:46:48.900Z,6.85
2023-03-25T22:49:17.557Z,6.84
2023-03-25T22:51:50.219Z,6.82
2023-03-25T22:54:19.974Z,6.80
2023-03-25T22:56:48.943Z,6.78
2023-03-25T22:59:17.682Z,6.79
2023-03-25T23:01:46.740Z,6.78
2023-03-25T23:04:17.056Z,6.77
2023-03-25T23:06:53.948Z,6.74
2023-03-25T23:09:42.007Z,6.73
2023-03-25T23:12:12.600Z,6.72
2023-03-25T23:14:45.213Z,6.71
2023-03-25T23:17:13.903Z,6.70
2023-03-25T23:19:42.568Z,6.68
2023-03-25T23:22:17.770Z,6.65
2023-03-25T23:24:46.304Z,6.64
2023-03-25T23:27:14.643Z,6.64
2023-03-25T23:29:45.419Z,6.64
2023-03-25T23:32:14.657Z,6.63
2023-03-25T23:34:42.790Z,6.62
2023-03-25T23:37:11.079Z,6.62
2023-03-25T23:39:40.791Z,6.62
2023-03-25T23:42:09.385Z,6.62
2023-03-25T23:44:37.960Z,6.63
2023-03-25T23:47:07.415Z,6.62
2023-03-25T23:49:38.445Z,6.62
2023-03-25T23:52:12.445Z,6.63
2023-03-25T23:54:41.844Z,6.64
2023-03-25T23:57:10.103Z,6.64
2023-03-25T23:59:40.765Z,6.63
